Time;durP1;ratioP1;P1;durP2;ratioP2;P2;SDS_P1;SDS_P2;PMS_P1;PMS_P2;Temp;Humidity;BMP_temperature;BMP_pressure;BME280_temperature;BME280_humidity;BME280_pressure;Samples;Min_cycle;Max_cycle;Signal;HPM_P1;HPM_P2
2022/10/15 00:01:50;;;;;;;22.60;14.70;;;13.90;99.90;;;14.04;84.64;100379.91;5043001;28;20454;-87
2022/10/15 00:04:21;;;;;;;27.67;16.17;;;13.90;99.90;;;14.03;84.98;100380.97;5010274;28;20388;-84
2022/10/15 00:06:50;;;;;;;21.40;16.70;;;13.90;99.90;;;13.92;85.96;100368.22;5012422;28;20422;-85
2022/10/15 00:09:19;;;;;;;22.03;16.30;;;13.80;99.90;;;13.79;86.93;100368.44;5015118;28;20507;-85
2022/10/15 00:11:48;;;;;;;19.17;16.13;;;13.70;99.90;;;13.80;87.90;100364.63;5018693;28;20432;-84
2022/10/15 00:14:16;;;;;;;19.70;16.53;;;13.70;99.90;;;14.03;86.78;100364.66;5019777;28;21106;-83
2022/10/15 00:16:45;;;;;;;24.40;16.70;;;13.80;99.90;;;13.91;88.04;100355.66;5023639;28;20491;-84
2022/10/15 00:19:14;;;;;;;25.30;17.63;;;13.70;1.00;;;13.95;88.28;100354.13;5028091;28;20388;-84
2022/10/15 00:21:44;;;;;;;23.83;15.90;;;13.80;1.00;;;13.86;89.34;100359.09;5032822;28;20420;-84
2022/10/15 00:24:14;;;;;;;20.27;16.03;;;13.70;1.00;;;13.81;90.67;100350.81;5018982;28;20427;-84
2022/10/15 00:26:44;;;;;;;19.73;15.33;;;13.70;99.90;;;13.77;92.04;100343.38;5017351;28;20496;-85
2022/10/15 00:29:13;;;;;;;25.43;17.90;;;13.70;99.90;;;13.85;92.67;100340.28;5001050;28;20465;-83
2022/10/15 00:31:42;;;;;;;24.23;15.23;;;13.70;9.40;;;13.78;94.44;100337.69;4999826;28;20444;-86
2022/10/15 00:34:13;;;;;;;19.93;14.40;;;13.60;1.00;;;13.86;95.52;100339.22;5011056;28;20456;-85
2022/10/15 00:36:44;;;;;;;20.63;15.23;;;13.70;1.00;;;13.63;96.68;100331.06;5023991;28;20404;-84
2022/10/15 00:39:19;;;;;;;20.30;17.10;;;13.60;23.90;;;13.62;97.98;100332.97;5030252;28;21055;-85
2022/10/15 00:41:48;;;;;;;20.93;15.50;;;13.50;99.90;;;13.58;98.72;100339.09;5015480;28;20407;-84
2022/10/15 00:44:52;;;;;;;26.00;18.27;;;13.50;1.00;;;13.67;99.56;100337.69;5021403;28;20428;-84
2022/10/15 00:47:29;;;;;;;25.40;17.60;;;13.50;1.00;;;13.70;98.72;100337.22;5032630;28;20423;-85
2022/10/15 00:50:06;;;;;;;22.30;17.97;;;13.50;1.00;;;13.63;99.48;100341.94;5004222;28;20440;-86
2022/10/15 00:52:43;;;;;;;21.63;16.37;;;13.50;4.40;;;13.58;99.46;100333.66;5021528;28;20427;-84
2022/10/15 00:55:19;;;;;;;22.50;17.20;;;13.50;8.50;;;13.60;100.00;100332.38;5020703;28;20443;-84
2022/10/15 00:57:52;;;;;;;28.13;18.37;;;13.50;99.90;;;13.57;100.00;100327.41;5009034;28;20407;-85
2022/10/15 01:00:22;;;;;;;26.77;18.53;;;13.50;99.90;;;13.48;100.00;100321.50;5039702;28;20430;-85
2022/10/15 01:02:52;;;;;;;31.17;21.90;;;13.40;99.90;;;13.49;100.00;100309.56;5022442;28;21000;-84
2022/10/15 01:05:24;;;;;;;39.97;27.00;;;13.40;99.90;;;13.42;100.00;100316.97;5021925;28;20427;-85
2022/10/15 01:07:54;;;;;;;36.43;28.63;;;13.30;99.90;;;13.36;100.00;100309.75;5025068;28;20834;-85
2022/10/15 01:10:43;;;;;;;36.40;27.40;;;13.30;99.90;;;13.34;100.00;100305.63;5022300;28;20448;-85
2022/10/15 01:13:23;;;;;;;34.87;26.80;;;13.20;99.90;;;13.30;100.00;100299.03;5032813;28;20448;-83
2022/10/15 01:16:06;;;;;;;30.60;22.90;;;13.20;99.90;;;13.36;100.00;100293.44;5028902;28;20423;-84
2022/10/15 01:18:44;;;;;;;33.40;25.30;;;13.20;99.90;;;13.51;100.00;100290.28;5015879;28;20436;-84
2022/10/15 01:21:25;;;;;;;28.20;20.77;;;13.30;99.90;;;13.38;100.00;100288.63;5017391;28;20443;-85
2022/10/15 01:24:50;;;;;;;27.73;21.70;;;13.30;99.90;;;13.45;100.00;100286.63;5010707;28;20440;-86
2022/10/15 01:27:43;;;;;;;29.70;18.50;;;13.30;99.90;;;13.51;100.00;100286.75;5021762;28;21005;-85
2022/10/15 01:30:32;;;;;;;29.03;18.60;;;13.30;99.90;;;13.34;100.00;100284.72;5021467;28;20555;-85
2022/10/15 01:33:31;;;;;;;22.07;17.13;;;13.30;99.90;;;13.39;100.00;100281.31;5012662;28;20448;-82
2022/10/15 01:36:15;;;;;;;28.33;18.93;;;13.30;99.90;;;13.57;100.00;100278.47;5043297;28;20496;-83
2022/10/15 01:38:56;;;;;;;26.80;18.30;;;13.30;99.90;;;13.49;100.00;100276.94;5024671;28;20960;-86
2022/10/15 01:41:36;;;;;;;31.23;20.23;;;13.30;99.90;;;13.53;100.00;100276.47;5008618;28;20408;-84
2022/10/15 01:44:12;;;;;;;28.03;17.90;;;13.40;99.90;;;13.51;100.00;100265.81;5019951;28;20446;-85
2022/10/15 01:47:11;;;;;;;26.87;16.83;;;13.40;99.90;;;13.58;100.00;100269.25;5020810;28;20409;-83
2022/10/15 01:49:45;;;;;;;26.57;19.37;;;13.40;99.90;;;13.42;100.00;100267.22;5021264;28;20388;-86
2022/10/15 01:52:20;;;;;;;29.40;17.97;;;13.30;99.90;;;13.42;100.00;100270.78;5007118;28;20951;-86
2022/10/15 01:54:53;;;;;;;27.57;15.50;;;13.30;99.90;;;13.46;100.00;100266.53;5023623;28;20531;-84
2022/10/15 01:57:27;;;;;;;23.40;19.03;;;13.30;99.90;;;13.73;100.00;100274.22;5024115;28;20460;-85
2022/10/15 01:59:58;;;;;;;22.87;16.20;;;13.50;99.90;;;13.57;100.00;100261.31;5022934;28;20843;-84
2022/10/15 02:02:28;;;;;;;24.83;18.40;;;13.40;99.90;;;13.56;100.00;100254.22;5024119;28;20529;-84
2022/10/15 02:04:57;;;;;;;27.23;18.73;;;13.40;99.90;;;13.54;100.00;100250.94;5039169;28;20407;-85
2022/10/15 02:07:41;;;;;;;24.17;19.33;;;13.40;99.90;;;13.44;100.00;100252.38;5022863;28;20417;-84
2022/10/15 02:10:22;;;;;;;25.10;18.47;;;13.30;99.90;;;13.49;100.00;100252.47;5023434;28;20461;-82
2022/10/15 02:13:07;;;;;;;26.73;17.93;;;13.40;99.90;;;13.52;100.00;100248.44;5013906;28;20497;-84
2022/10/15 02:15:52;;;;;;;25.93;17.60;;;13.40;99.90;;;13.46;100.00;100243.94;5018499;28;20961;-85
2022/10/15 02:18:36;;;;;;;25.00;19.13;;;13.30;99.90;;;13.44;100.00;100237.94;5025087;28;20426;-83
2022/10/15 02:21:14;;;;;;;26.43;18.23;;;13.30;99.90;;;13.32;100.00;100237.94;5031686;28;20442;-84
2022/10/15 02:23:52;;;;;;;23.43;16.47;;;13.30;99.90;;;13.47;100.00;100234.75;5035923;28;20513;-87
2022/10/15 02:26:28;;;;;;;21.63;17.30;;;13.30;99.90;;;13.42;100.00;100235.44;5024227;28;20457;-87
2022/10/15 02:29:00;;;;;;;20.63;16.03;;;13.30;99.90;;;13.45;100.00;100237.72;5022563;28;20430;-83
2022/10/15 02:31:35;;;;;;;23.47;16.00;;;13.30;99.90;;;13.36;100.00;100228.22;5022178;28;20458;-86
2022/10/15 02:34:13;;;;;;;23.67;18.07;;;13.30;99.90;;;13.37;100.00;100240.75;5021386;28;20434;-85
2022/10/15 02:36:43;;;;;;;30.67;19.33;;;13.30;99.90;;;13.28;100.00;100230.47;5039624;28;20436;-83
2022/10/15 02:39:18;;;;;;;24.37;17.27;;;13.20;99.90;;;13.48;100.00;100239.13;5023401;28;20443;-85
2022/10/15 02:41:48;;;;;;;21.90;17.00;;;13.30;99.90;;;13.41;100.00;100231.06;5024872;28;20800;-84
2022/10/15 02:44:18;;;;;;;26.77;18.60;;;13.30;99.90;;;13.74;100.00;100235.09;5023838;28;20464;-84
2022/10/15 02:46:47;;;;;;;22.37;17.87;;;13.40;99.90;;;13.60;100.00;100229.09;5034312;28;20552;-86
2022/10/15 02:49:19;;;;;;;25.40;18.50;;;13.50;99.90;;;13.74;100.00;100225.03;5019791;28;20488;-85
2022/10/15 02:51:50;;;;;;;28.73;16.97;;;13.50;99.90;;;13.62;100.00;100228.81;5020613;28;20476;-85
2022/10/15 02:54:20;;;;;;;25.40;17.80;;;13.50;99.90;;;13.53;100.00;100222.94;5021857;28;20404;-84
2022/10/15 02:56:49;;;;;;;20.93;16.33;;;13.40;99.90;;;13.46;100.00;100225.75;5020858;28;20442;-84
2022/10/15 02:59:20;;;;;;;24.57;16.90;;;13.40;99.90;;;13.48;100.00;100220.91;5021445;28;20483;-86
2022/10/15 03:01:50;;;;;;;27.27;18.33;;;13.30;99.90;;;13.47;100.00;100223.88;5004667;28;20460;-85
2022/10/15 03:04:21;;;;;;;27.70;20.57;;;13.30;99.90;;;13.62;100.00;100223.38;5019576;28;20416;-83
2022/10/15 03:06:50;;;;;;;27.80;17.07;;;13.50;99.90;;;13.70;100.00;100220.31;5024119;28;20457;-84
2022/10/15 03:09:20;;;;;;;22.93;17.10;;;13.50;99.90;;;13.58;100.00;100217.59;5029545;28;20480;-83
2022/10/15 03:11:49;;;;;;;24.23;17.07;;;13.50;99.90;;;13.52;100.00;100215.81;5029530;28;21031;-82
2022/10/15 03:14:18;;;;;;;25.57;17.83;;;13.40;99.90;;;13.77;100.00;100218.28;5036022;28;20441;-86
2022/10/15 03:16:47;;;;;;;24.57;16.83;;;13.60;99.90;;;13.55;100.00;100226.25;5037784;28;20439;-86
2022/10/15 03:19:18;;;;;;;26.03;17.83;;;13.50;99.90;;;13.54;100.00;100218.31;5036971;28;20448;-86
2022/10/15 03:21:49;;;;;;;23.87;17.07;;;13.40;99.90;;;13.48;100.00;100210.03;5037728;28;20449;-87
2022/10/15 03:24:18;;;;;;;28.57;19.20;;;13.40;99.90;;;13.46;100.00;100216.78;5038486;28;20413;-86
2022/10/15 03:26:47;;;;;;;23.43;16.90;;;13.40;99.90;;;13.36;100.00;100206.50;5025461;28;20434;-86
2022/10/15 03:29:16;;;;;;;24.60;16.30;;;13.30;99.90;;;13.38;100.00;100209.81;5034436;28;20399;-87
2022/10/15 03:31:51;;;;;;;26.83;18.60;;;13.30;99.90;;;13.28;100.00;100196.00;5011473;28;20519;-87
2022/10/15 03:34:21;;;;;;;27.50;18.17;;;13.20;99.90;;;13.26;100.00;100203.56;5009902;28;20400;-84
2022/10/15 03:36:52;;;;;;;22.87;17.53;;;13.20;99.90;;;13.15;100.00;100198.13;5008186;28;20428;-84
2022/10/15 03:39:21;;;;;;;28.43;18.80;;;13.10;99.90;;;13.26;100.00;100200.03;5017214;28;20424;-87
2022/10/15 03:41:54;;;;;;;28.10;17.70;;;13.20;99.90;;;13.21;100.00;100195.31;5034482;28;20432;-89
2022/10/15 03:44:30;;;;;;;25.07;18.70;;;13.20;99.90;;;13.28;100.00;100198.72;5060311;23;21028;-73
2022/10/15 03:47:08;;;;;;;22.33;15.77;;;13.20;99.90;;;13.25;100.00;100199.19;5040928;28;20808;-71
2022/10/15 03:49:44;;;;;;;22.80;17.07;;;13.20;99.90;;;13.34;100.00;100203.22;5042673;28;20469;-73
2022/10/15 03:52:15;;;;;;;26.70;17.10;;;13.20;99.90;;;13.54;100.00;100202.00;5054452;28;20442;-72
2022/10/15 03:54:46;;;;;;;27.47;19.10;;;13.30;99.90;;;13.42;100.00;100197.41;5039321;28;20447;-72
2022/10/15 03:57:18;;;;;;;22.33;16.93;;;13.30;99.90;;;13.39;100.00;100195.16;5069015;22;20489;-70
2022/10/15 03:59:52;;;;;;;23.90;16.60;;;13.30;99.90;;;13.38;100.00;100206.25;4992649;28;20444;-70
2022/10/15 04:02:24;;;;;;;26.10;17.17;;;13.30;99.90;;;13.44;100.00;100206.16;5013635;28;20445;-70
2022/10/15 04:04:54;;;;;;;22.63;17.23;;;13.30;99.90;;;13.67;100.00;100199.03;5009082;28;20515;-70
2022/10/15 04:07:25;;;;;;;25.87;17.03;;;13.40;99.90;;;13.45;100.00;100202.38;4995129;28;20444;-70
2022/10/15 04:09:54;;;;;;;20.50;16.43;;;13.40;99.90;;;13.35;100.00;100202.16;4986673;28;20437;-70
2022/10/15 04:12:27;;;;;;;21.47;17.07;;;13.30;99.90;;;13.60;100.00;100209.22;5002775;28;20472;-70
2022/10/15 04:14:57;;;;;;;24.50;16.67;;;13.40;99.90;;;13.44;100.00;100203.44;4991844;28;20488;-70
2022/10/15 04:17:26;;;;;;;20.37;17.77;;;13.30;99.90;;;13.35;100.00;100215.75;4995936;28;20427;-70
2022/10/15 04:19:55;;;;;;;21.70;17.23;;;13.20;99.90;;;13.27;100.00;100212.53;4991710;28;20910;-71
2022/10/15 04:22:25;;;;;;;30.90;21.47;;;13.20;99.90;;;13.47;100.00;100213.81;5009487;28;20438;-71
2022/10/15 04:24:59;;;;;;;23.07;16.13;;;13.30;99.90;;;13.43;100.00;100209.94;4991543;28;20511;-71
2022/10/15 04:27:29;;;;;;;22.83;16.20;;;13.30;99.90;;;13.45;100.00;100210.53;5001592;28;20470;-71
2022/10/15 04:30:13;;;;;;;23.47;18.47;;;13.30;99.90;;;13.52;100.00;100210.38;4991508;28;20532;-71
2022/10/15 04:32:57;;;;;;;27.97;18.03;;;13.30;99.90;;;13.47;100.00;100213.81;4991682;28;20523;-71
2022/10/15 04:35:26;;;;;;;23.83;16.63;;;13.40;99.90;;;13.45;100.00;100209.72;5022223;28;20497;-71
2022/10/15 04:38:22;;;;;;;23.67;14.77;;;13.40;99.90;;;13.31;100.00;100203.66;5007438;28;20447;-71
2022/10/15 04:41:01;;;;;;;23.87;17.00;;;13.30;99.90;;;13.28;100.00;100209.56;5008227;28;20425;-71
2022/10/15 04:43:42;;;;;;;23.23;16.43;;;13.20;99.90;;;13.27;100.00;100209.81;5008330;28;20433;-70
2022/10/15 04:46:13;;;;;;;21.00;15.83;;;13.20;99.90;;;13.24;100.00;100215.72;5008479;28;20972;-71
2022/10/15 04:48:42;;;;;;;23.43;16.50;;;13.20;99.90;;;13.38;100.00;100215.25;4993206;28;20429;-71
2022/10/15 04:51:16;;;;;;;24.33;17.40;;;13.20;99.90;;;13.51;100.00;100213.38;4991953;28;20502;-71
2022/10/15 04:54:02;;;;;;;23.80;15.97;;;13.30;99.90;;;13.49;100.00;100217.16;5008234;28;20415;-72
2022/10/15 04:56:32;;;;;;;25.03;15.90;;;13.40;99.90;;;13.59;100.00;100215.72;4991213;28;20531;-71
2022/10/15 04:59:01;;;;;;;26.13;17.33;;;13.40;99.90;;;13.53;100.00;100222.94;4991524;28;21004;-71
2022/10/15 05:01:32;;;;;;;24.63;16.30;;;13.40;99.90;;;13.71;100.00;100219.22;4991259;28;20402;-70
2022/10/15 05:04:09;;;;;;;26.37;16.10;;;13.50;99.90;;;13.75;100.00;100225.84;4991336;28;20449;-70
2022/10/15 05:06:39;;;;;;;21.43;16.50;;;13.60;99.90;;;13.73;100.00;100226.09;4993382;28;20889;-71
2022/10/15 05:09:22;;;;;;;22.00;15.30;;;13.50;99.90;;;13.64;100.00;100213.94;4991680;28;20803;-72
2022/10/15 05:11:52;;;;;;;21.30;16.10;;;13.50;99.90;;;13.53;100.00;100216.66;4991236;28;20476;-71
2022/10/15 05:14:22;;;;;;;28.63;16.00;;;13.40;99.90;;;13.55;100.00;100211.81;5009199;28;20418;-71
2022/10/15 05:17:05;;;;;;;22.83;14.30;;;13.40;99.90;;;13.73;100.00;100217.94;4992809;28;20474;-71
2022/10/15 05:19:39;;;;;;;21.80;15.17;;;13.50;99.90;;;13.87;100.00;100213.88;4995350;28;20444;-71
2022/10/15 05:22:15;;;;;;;21.13;15.00;;;13.60;99.90;;;13.66;100.00;100214.50;4995174;28;20461;-70
2022/10/15 05:24:52;;;;;;;27.33;16.27;;;13.50;99.90;;;13.74;100.00;100211.44;4995206;28;20437;-71
2022/10/15 05:27:29;;;;;;;23.63;14.97;;;13.60;99.90;;;13.66;100.00;100219.13;4999705;28;20444;-71
2022/10/15 05:29:59;;;;;;;22.43;15.03;;;13.50;99.90;;;13.56;100.00;100217.00;4995602;28;20503;-73
2022/10/15 05:32:39;;;;;;;17.97;15.33;;;13.50;99.90;;;13.45;100.00;100221.41;5017943;28;20575;-71
2022/10/15 05:35:12;;;;;;;18.80;15.33;;;13.40;99.90;;;13.40;100.00;100226.72;5011477;28;20443;-71
2022/10/15 05:37:53;;;;;;;21.33;16.60;;;13.40;99.90;;;13.18;100.00;100222.91;4995384;28;20499;-71
2022/10/15 05:40:25;;;;;;;20.63;13.73;;;13.20;99.90;;;13.17;100.00;100226.69;4996985;28;20457;-71
2022/10/15 05:43:19;;;;;;;20.97;15.03;;;13.20;99.90;;;13.05;100.00;100237.53;5008573;28;20506;-71
2022/10/15 05:45:49;;;;;;;23.07;15.53;;;13.10;99.90;;;13.06;100.00;100232.94;4997819;28;20461;-72
2022/10/15 05:48:19;;;;;;;19.43;15.43;;;13.10;99.90;;;12.94;100.00;100234.78;5006239;28;20439;-71
2022/10/15 05:50:47;;;;;;;21.83;14.63;;;13.00;99.90;;;13.04;100.00;100238.59;5012936;28;20403;-72
2022/10/15 05:53:25;;;;;;;27.53;16.00;;;13.00;99.90;;;13.02;100.00;100234.47;5003118;28;20466;-71
2022/10/15 05:56:01;;;;;;;25.70;15.43;;;12.90;99.90;;;13.19;100.00;100238.16;5005202;28;20759;-71
2022/10/15 05:58:33;;;;;;;23.63;16.10;;;13.10;99.90;;;13.22;100.00;100242.28;5019990;28;20871;-70
2022/10/15 06:01:08;;;;;;;24.60;14.43;;;13.10;99.90;;;13.14;100.00;100239.94;5012413;28;20531;-71
2022/10/15 06:03:39;;;;;;;21.70;14.97;;;13.10;99.90;;;13.24;100.00;100251.03;5012186;28;20778;-71
2022/10/15 06:06:15;;;;;;;20.90;15.70;;;13.10;99.90;;;13.26;100.00;100246.22;5012472;28;20455;-70
2022/10/15 06:08:44;;;;;;;17.50;13.07;;;13.10;99.90;;;13.31;100.00;100252.56;4994601;28;20433;-72
2022/10/15 06:11:15;;;;;;;18.10;14.17;;;13.20;99.90;;;13.22;100.00;100251.25;5012101;28;20515;-72
2022/10/15 06:13:45;;;;;;;22.40;14.23;;;13.10;99.90;;;13.23;100.00;100255.66;5012113;28;20799;-71
2022/10/15 06:16:17;;;;;;;20.70;14.53;;;13.20;99.90;;;13.20;100.00;100264.28;5011867;28;20449;-71
2022/10/15 06:18:52;;;;;;;19.37;14.37;;;13.10;99.90;;;13.07;100.00;100264.44;5012241;28;20784;-72
2022/10/15 06:21:21;;;;;;;19.70;14.30;;;13.00;99.90;;;13.11;100.00;100262.09;5012891;28;20421;-73
2022/10/15 06:23:50;;;;;;;20.37;15.93;;;13.10;99.90;;;13.14;100.00;100265.22;5013017;28;20404;-72
2022/10/15 06:26:21;;;;;;;21.23;13.53;;;13.10;99.90;;;13.04;100.00;100273.06;5013612;28;20449;-71
2022/10/15 06:28:50;;;;;;;19.00;13.30;;;13.00;99.90;;;13.12;100.00;100270.03;5013015;28;20411;-71
2022/10/15 06:31:18;;;;;;;21.33;14.83;;;13.00;99.90;;;13.23;100.00;100268.41;5014013;28;20421;-72
2022/10/15 06:33:47;;;;;;;20.50;14.63;;;13.10;99.90;;;13.22;100.00;100273.00;5013221;28;20427;-72
2022/10/15 06:36:16;;;;;;;21.10;16.30;;;13.10;99.90;;;13.19;100.00;100268.03;5012728;28;20426;-70
2022/10/15 06:38:47;;;;;;;23.40;16.80;;;13.10;99.90;;;13.34;100.00;100273.84;5012039;28;20421;-71
2022/10/15 06:41:16;;;;;;;20.33;14.73;;;13.20;99.90;;;13.31;100.00;100279.75;4992487;28;20389;-71
2022/10/15 06:43:49;;;;;;;24.20;14.63;;;13.20;99.90;;;13.48;100.00;100280.72;5011675;28;20499;-70
2022/10/15 06:46:18;;;;;;;20.87;14.47;;;13.30;99.90;;;13.55;100.00;100287.94;5011695;28;20435;-71
2022/10/15 06:48:48;;;;;;;19.30;13.63;;;13.40;99.90;;;13.71;100.00;100279.03;5011820;28;20437;-72
2022/10/15 06:51:17;;;;;;;22.80;14.50;;;13.50;99.90;;;13.88;100.00;100285.44;5011931;28;20384;-71
2022/10/15 06:53:50;;;;;;;19.27;14.67;;;13.60;99.90;;;13.93;100.00;100289.09;5012126;28;20475;-71
2022/10/15 06:56:19;;;;;;;16.37;13.30;;;13.60;99.90;;;14.07;100.00;100286.94;5011583;28;20484;-70
2022/10/15 06:58:49;;;;;;;22.83;14.20;;;13.80;99.90;;;14.23;100.00;100288.88;5012144;28;20751;-71
2022/10/15 07:01:18;;;;;;;15.90;11.63;;;13.90;99.90;;;14.54;100.00;100295.00;5011783;28;20408;-72
2022/10/15 07:03:50;;;;;;;21.70;14.20;;;14.20;99.90;;;14.73;100.00;100304.63;5011165;28;20428;-72
2022/10/15 07:06:19;;;;;;;16.13;14.33;;;14.40;99.90;;;14.88;98.41;100301.34;5010866;28;20467;-71
2022/10/15 07:08:47;;;;;;;15.87;12.23;;;14.50;99.90;;;14.84;97.41;100301.03;5010867;28;20421;-72
2022/10/15 07:11:17;;;;;;;19.70;14.30;;;14.50;99.90;;;14.75;98.25;100307.94;4990626;28;20438;-71
2022/10/15 07:13:45;;;;;;;19.37;12.60;;;14.40;99.90;;;14.74;98.00;100311.72;4991442;28;20454;-70
2022/10/15 07:16:16;;;;;;;18.90;12.57;;;14.50;99.90;;;14.88;97.38;100318.53;4990945;28;20445;-72
2022/10/15 07:18:47;;;;;;;15.43;13.83;;;14.60;99.90;;;14.83;97.03;100326.59;4991077;28;20396;-71
2022/10/15 07:21:16;;;;;;;22.93;13.53;;;14.50;99.90;;;14.91;96.93;100322.69;4994126;28;20781;-71
2022/10/15 07:23:45;;;;;;;16.20;12.63;;;14.60;99.90;;;14.88;97.25;100323.16;5010872;28;20473;-72
2022/10/15 07:26:14;;;;;;;16.37;12.93;;;14.60;99.90;;;14.91;96.54;100330.84;5011070;28;20441;-72
2022/10/15 07:28:43;;;;;;;14.07;11.67;;;14.60;99.90;;;14.87;96.85;100327.75;5010718;28;20754;-71
2022/10/15 07:31:12;;;;;;;18.47;12.57;;;14.60;99.90;;;14.92;96.30;100322.41;5010865;28;20461;-72
2022/10/15 07:33:43;;;;;;;16.97;13.07;;;14.60;99.90;;;14.97;96.89;100317.06;4992603;28;20451;-71
2022/10/15 07:36:12;;;;;;;19.70;15.53;;;14.70;99.90;;;15.23;95.85;100316.44;5010384;28;20459;-70
2022/10/15 07:38:43;;;;;;;20.83;12.70;;;14.80;99.90;;;15.28;94.33;100312.16;5007478;28;20424;-72
2022/10/15 07:41:12;;;;;;;24.27;13.87;;;14.90;99.90;;;15.64;92.04;100322.56;5010421;28;20483;-71
2022/10/15 07:43:43;;;;;;;14.93;12.23;;;15.10;99.90;;;15.75;91.10;100316.22;5011411;28;20709;-72
2022/10/15 07:46:12;;;;;;;16.23;11.67;;;15.30;99.90;;;15.74;91.05;100321.91;5010132;28;20439;-71
2022/10/15 07:48:42;;;;;;;15.33;11.23;;;15.30;99.90;;;15.84;91.07;100319.34;4993370;28;20424;-71
2022/10/15 07:51:13;;;;;;;15.80;11.90;;;15.40;99.90;;;16.07;90.00;100319.94;4993208;28;20432;-71
2022/10/15 07:53:42;;;;;;;17.43;13.60;;;15.60;99.90;;;16.12;89.68;100312.94;5011823;28;20468;-71
2022/10/15 07:56:14;;;;;;;17.50;12.63;;;15.70;99.90;;;16.51;87.25;100317.22;5011152;28;20428;-72
2022/10/15 07:58:50;;;;;;;17.50;12.47;;;16.00;99.90;;;16.49;87.12;100317.50;4993536;28;21037;-72
2022/10/15 08:01:20;;;;;;;15.90;12.17;;;15.90;99.90;;;16.55;86.42;100315.66;5010393;28;20440;-71
2022/10/15 08:03:51;;;;;;;14.90;12.17;;;15.90;99.90;;;16.65;85.59;100315.00;5010355;28;20415;-71
2022/10/15 08:06:20;;;;;;;16.03;11.80;;;16.00;99.90;;;16.66;85.31;100314.72;4992089;28;20501;-71
2022/10/15 08:08:49;;;;;;;15.37;12.33;;;16.10;99.90;;;16.90;84.31;100316.06;5010149;28;20471;-71
2022/10/15 08:11:18;;;;;;;13.80;11.10;;;16.30;99.90;;;17.10;82.80;100320.09;5010323;28;20639;-71
2022/10/15 08:13:47;;;;;;;14.60;11.83;;;16.50;99.90;;;17.15;82.06;100322.88;5009959;28;20483;-71
2022/10/15 08:16:18;;;;;;;13.40;12.00;;;16.70;99.90;;;16.87;82.63;100324.78;5009554;28;20432;-71
2022/10/15 08:19:00;;;;;;;24.40;12.13;;;16.50;99.90;;;16.97;82.87;100331.44;5010211;28;20509;-71
2022/10/15 08:21:29;;;;;;;17.70;11.83;;;16.60;99.90;;;16.72;84.09;100330.09;4999039;28;20882;-70
2022/10/15 08:23:59;;;;;;;14.57;10.70;;;16.50;99.90;;;16.59;85.01;100343.31;5008003;28;20498;-72
2022/10/15 08:26:34;;;;;;;14.77;11.60;;;16.30;99.90;;;16.62;85.14;100337.34;5002418;28;21003;-70
2022/10/15 08:29:03;;;;;;;11.93;10.27;;;16.30;99.90;;;16.64;83.88;100333.28;5009642;28;20450;-71
2022/10/15 08:31:32;;;;;;;14.80;10.90;;;16.30;99.90;;;16.58;84.40;100339.75;5009610;28;20450;-71
2022/10/15 08:34:03;;;;;;;13.63;9.93;;;16.30;99.90;;;16.58;85.38;100339.75;5010046;28;20888;-72
2022/10/15 08:36:32;;;;;;;14.73;10.63;;;16.30;99.90;;;16.74;83.81;100341.59;5009499;28;20917;-71
2022/10/15 08:39:00;;;;;;;12.67;9.53;;;16.40;99.90;;;16.75;83.61;100340.50;5009373;28;20407;-72
2022/10/15 08:41:38;;;;;;;17.87;12.40;;;16.40;99.90;;;17.00;81.92;100348.16;5009538;28;20404;-71
2022/10/15 08:44:16;;;;;;;14.50;10.07;;;16.60;99.90;;;17.04;82.52;100343.00;5010012;28;20408;-71
2022/10/15 08:46:50;;;;;;;11.57;8.80;;;16.60;99.90;;;17.18;82.46;100347.81;5009943;28;20522;-71
2022/10/15 08:49:35;;;;;;;14.73;10.83;;;16.70;99.90;;;17.43;80.99;100338.97;5009909;28;20453;-72
2022/10/15 08:52:20;;;;;;;13.47;9.83;;;16.80;99.90;;;17.48;78.86;100344.50;5011009;28;20962;-71
2022/10/15 08:54:49;;;;;;;11.70;9.87;;;17.00;99.90;;;17.20;80.69;100342.06;5013407;28;20451;-71
2022/10/15 08:57:36;;;;;;;15.40;10.03;;;17.00;99.90;;;17.12;81.12;100342.53;4995355;28;20427;-71
2022/10/15 09:00:17;;;;;;;13.03;9.40;;;16.90;99.90;;;17.27;80.10;100348.97;5013314;28;20895;-71
2022/10/15 09:02:57;;;;;;;10.77;8.60;;;17.00;99.90;;;17.23;80.69;100352.50;5013172;28;20395;-70
2022/10/15 09:05:42;;;;;;;12.80;10.20;;;16.90;99.90;;;17.44;80.35;100348.00;5012879;28;20702;-72
2022/10/15 09:08:26;;;;;;;10.90;8.70;;;17.10;99.90;;;17.61;79.52;100352.31;5014091;28;20969;-72
2022/10/15 09:11:05;;;;;;;14.50;11.23;;;17.20;99.90;;;17.55;78.85;100353.31;5011005;28;20531;-71
2022/10/15 09:13:39;;;;;;;11.93;10.60;;;17.20;99.90;;;17.78;77.54;100355.72;5007081;28;20510;-72
2022/10/15 09:16:16;;;;;;;12.90;8.60;;;17.40;99.90;;;17.81;77.02;100366.13;5012508;28;20452;-72
2022/10/15 09:18:48;;;;;;;10.27;8.07;;;17.40;99.90;;;17.82;77.35;100372.44;5013042;28;20400;-72
2022/10/15 09:21:22;;;;;;;13.00;9.90;;;17.50;99.90;;;17.95;77.03;100361.06;5013019;28;20808;-70
2022/10/15 09:23:51;;;;;;;13.80;10.50;;;17.60;99.90;;;17.94;76.44;100358.56;5012599;28;20424;-72
2022/10/15 09:26:29;;;;;;;13.03;10.20;;;17.50;99.90;;;18.18;75.55;100359.81;5010290;28;20475;-72
2022/10/15 09:29:11;;;;;;;16.20;10.50;;;17.70;99.90;;;18.06;75.51;100361.91;5013174;28;20825;-71
2022/10/15 09:31:49;;;;;;;11.47;9.20;;;17.70;99.90;;;18.17;75.82;100369.13;4993631;28;20424;-71
2022/10/15 09:34:29;;;;;;;12.20;9.23;;;17.80;99.90;;;18.33;74.88;100356.34;4995415;28;20436;-72
2022/10/15 09:37:11;;;;;;;10.47;8.13;;;17.80;99.90;;;18.47;74.96;100362.97;5012849;28;20417;-71
2022/10/15 09:39:55;;;;;;;11.87;9.47;;;;;;;18.74;73.83;100362.84;4994858;28;20424;-72
2022/10/15 09:42:30;;;;;;;11.20;8.93;;;;;;;18.82;73.26;100359.59;5012610;28;20441;-72
2022/10/15 09:45:02;;;;;;;13.03;9.60;;;;;;;19.06;72.32;100363.50;5027490;23;20900;-71
2022/10/15 09:47:33;;;;;;;13.50;9.23;;;;;;;19.15;71.49;100359.13;5014680;28;20423;-70
2022/10/15 09:50:04;;;;;;;11.00;9.47;;;17.90;99.90;;;19.37;69.81;100373.41;5015534;28;20520;-71
2022/10/15 09:53:02;;;;;;;11.27;9.57;;;18.80;99.90;;;19.16;69.94;100371.75;5008646;28;20474;-71
2022/10/15 09:55:43;;;;;;;13.17;9.63;;;18.60;99.90;;;19.32;69.83;100365.19;5010837;28;20436;-71
2022/10/15 09:58:18;;;;;;;10.83;8.67;;;;;;;19.47;69.19;100361.66;5016656;28;20456;-72
2022/10/15 10:00:57;;;;;;;13.87;9.90;;;;;;;19.87;68.62;100367.16;5015887;28;20425;-71
2022/10/15 10:03:31;;;;;;;10.63;9.53;;;18.60;99.90;;;20.25;67.08;100362.97;5012747;28;20444;-69
2022/10/15 10:06:04;;;;;;;11.80;10.07;;;19.40;99.90;;;20.50;65.18;100364.00;5015104;28;20425;-70
2022/10/15 10:08:49;;;;;;;12.23;10.00;;;19.70;99.90;;;20.72;64.51;100370.78;5015807;28;21113;-70
2022/10/15 10:11:20;;;;;;;12.47;10.40;;;20.10;99.90;;;20.27;65.16;100376.44;5014647;28;20765;-71
2022/10/15 10:13:54;;;;;;;13.07;9.20;;;;;;;20.29;65.35;100375.03;5013177;28;20429;-70
2022/10/15 10:16:25;;;;;;;9.57;8.57;;;;;;;20.12;65.96;100382.78;5010789;28;20442;-71
2022/10/15 10:19:15;;;;;;;9.40;7.60;;;19.90;99.90;;;20.09;65.87;100377.81;5012317;28;20462;-71
2022/10/15 10:21:45;;;;;;;9.33;8.37;;;19.70;99.90;;;20.17;65.62;100377.28;5012453;28;20429;-72
2022/10/15 10:24:29;;;;;;;9.23;8.23;;;19.60;99.90;;;20.21;65.54;100383.84;5015728;28;20930;-70
2022/10/15 10:27:00;;;;;;;13.00;10.17;;;19.60;99.90;;;20.09;65.55;100377.81;5009709;28;20437;-70
2022/10/15 10:29:36;;;;;;;9.13;7.30;;;19.70;99.90;;;20.25;65.46;100376.69;5013840;28;20436;-71